Airfield :
LOGIN :

Register | Disclaimer

   EN    FR    IT 

 










Legend :    VFR   Marginal VFR   IFR   Intensive IFR   Very Intensive IFR
Visi :
Ceiling :
>= 8 km
>= 3000ft
5 to 8 km
1000 to 3000 ft
1500m to 5 km
500 to 1000 ft
800 to 1500m
200 to 500 ft
< 800m
< 200 ft
Symbols :   Thunderstorms  Fog  Heavy snow  Heavy precipitations  Wind > 20 kt
SIGMETs :     Misc.  Thunderstorms  Icing  Turbulence  Mountain Waves  Volcanic Ashes







- Airport Elevation : 479 ft
- IATA code : DOL
- Download approach charts


LFRG - Deauville

CURRENT METAR :
  • 201400Z AUTO 33003KT 280V020 8000 -RA BKN005 OVC021 17/16 Q1015 TEMPO SHRA SCT030CB

EXPIRED METARs :
  • 201330Z AUTO 32004KT 290V360 5000 -RA BR BKN004/// OVC022/// ///TCU 17/16 Q1015 TEMPO SHRA SCT030CB
  • 201300Z AUTO 31005KT 280V350 5000 -RA BR OVC004/// ///TCU 17/16 Q1015 TEMPO SHRA SCT030CB
  • 201230Z AUTO 30006KT 4000 -RA BR BKN004/// BKN010/// OVC015/// ///TCU 17/16 Q1015 TEMPO 5000 SHRA SCT030CB
  • 201200Z AUTO 31005KT 3700 -RA BR BKN003/// OVC007/// ///TCU 17/16 Q1015 TEMPO 5000 SHRA SCT030CB
  • 201130Z AUTO 31005KT 3100 -RA BR BKN004/// BKN008/// BKN012/// ///TCU 17/16 Q1015 TEMPO 5000 SHRA SCT030CB

TAF TAF LFRG
Valid from the 20 at 15:00 until the 21 at 00:00 UTC


201400Z 2015/2024 26008KT 9999 SCT040
TEMPO 2015/2018 5000 SHRA SCT030CB
BECMG 2021/2024 25010KT
ATIS : +33 2 31 65 65 36
No reported NOTAMs for that airfield.
1 SIGMET reported for the Paris FIR (LFFF) :
 
Embedded thunderstorms
LFFF SIGMET 2 VALID 201405/201600 LFPW
LFFF PARIS FIR/UIR EMBD TS OBS WI N4815 E00130 - N4945 E00215 - N4845 E00300 - N4815 E00130 TOP FL380 MOV NNE 15KT NC=



MET'MAP, your aeronautical weather chart ! - Copyright ORBIFLY December 2007 - Disclaimer

ORBIFLY MET'MAP TEAM :

Programming & Development : Alexandra Zaïnal
Concept & Development : Baudouin d'Aumeries
Co-Development & Prog : Marc-Olivier Méhu
Technical & hardware support : Manuel Goepfert

Contact : metmap@orbifly.com




SOURCES & CREDITS :

   NOAA